sensor_id;sensor_type;location;lat;lon;timestamp;P1;durP1;ratioP1;P2;durP2;ratioP2
10715;SDS011;5409;42.620;23.316;2023-03-23T00:00:41;3.42;;;2.58;;
10715;SDS011;5409;42.620;23.316;2023-03-23T00:03:07;5.00;;;4.25;;
10715;SDS011;5409;42.620;23.316;2023-03-23T00:05:35;15.85;;;10.02;;
10715;SDS011;5409;42.620;23.316;2023-03-23T00:08:06;5.30;;;4.05;;
10715;SDS011;5409;42.620;23.316;2023-03-23T00:10:34;4.68;;;4.18;;
10715;SDS011;5409;42.620;23.316;2023-03-23T00:13:01;3.30;;;2.85;;
10715;SDS011;5409;42.620;23.316;2023-03-23T00:15:28;4.28;;;3.47;;
10715;SDS011;5409;42.620;23.316;2023-03-23T00:17:58;5.57;;;4.15;;
10715;SDS011;5409;42.620;23.316;2023-03-23T00:20:27;7.30;;;4.22;;
10715;SDS011;5409;42.620;23.316;2023-03-23T00:22:56;8.07;;;4.57;;
10715;SDS011;5409;42.620;23.316;2023-03-23T00:25:24;5.10;;;4.25;;
10715;SDS011;5409;42.620;23.316;2023-03-23T00:27:51;7.35;;;3.38;;
10715;SDS011;5409;42.620;23.316;2023-03-23T00:30:18;4.97;;;4.03;;
10715;SDS011;5409;42.620;23.316;2023-03-23T00:32:45;4.38;;;3.97;;
10715;SDS011;5409;42.620;23.316;2023-03-23T00:35:11;3.80;;;3.50;;
10715;SDS011;5409;42.620;23.316;2023-03-23T00:37:38;4.50;;;4.07;;
10715;SDS011;5409;42.620;23.316;2023-03-23T00:40:07;5.38;;;4.88;;
10715;SDS011;5409;42.620;23.316;2023-03-23T00:42:35;5.25;;;2.83;;
10715;SDS011;5409;42.620;23.316;2023-03-23T00:45:03;4.93;;;4.32;;
10715;SDS011;5409;42.620;23.316;2023-03-23T00:47:35;6.03;;;2.50;;
10715;SDS011;5409;42.620;23.316;2023-03-23T00:50:02;2.75;;;2.20;;
10715;SDS011;5409;42.620;23.316;2023-03-23T00:52:30;5.25;;;3.17;;
10715;SDS011;5409;42.620;23.316;2023-03-23T00:54:57;5.68;;;3.95;;
10715;SDS011;5409;42.620;23.316;2023-03-23T00:57:25;5.35;;;2.85;;
10715;SDS011;5409;42.620;23.316;2023-03-23T00:59:51;3.78;;;2.70;;
10715;SDS011;5409;42.620;23.316;2023-03-23T01:02:18;4.47;;;3.17;;
10715;SDS011;5409;42.620;23.316;2023-03-23T01:04:49;5.43;;;4.93;;
10715;SDS011;5409;42.620;23.316;2023-03-23T01:07:17;6.47;;;4.70;;
10715;SDS011;5409;42.620;23.316;2023-03-23T01:09:44;6.88;;;5.00;;
10715;SDS011;5409;42.620;23.316;2023-03-23T01:12:11;8.70;;;4.88;;
10715;SDS011;5409;42.620;23.316;2023-03-23T01:14:39;6.25;;;4.88;;
10715;SDS011;5409;42.620;23.316;2023-03-23T01:17:06;11.70;;;6.93;;
10715;SDS011;5409;42.620;23.316;2023-03-23T01:19:32;8.13;;;6.28;;
10715;SDS011;5409;42.620;23.316;2023-03-23T01:22:00;9.68;;;7.18;;
10715;SDS011;5409;42.620;23.316;2023-03-23T01:24:26;8.82;;;6.65;;
10715;SDS011;5409;42.620;23.316;2023-03-23T01:26:53;8.77;;;7.28;;
10715;SDS011;5409;42.620;23.316;2023-03-23T01:29:20;9.27;;;6.97;;
10715;SDS011;5409;42.620;23.316;2023-03-23T01:31:48;6.50;;;5.25;;
10715;SDS011;5409;42.620;23.316;2023-03-23T01:34:14;5.22;;;4.68;;
10715;SDS011;5409;42.620;23.316;2023-03-23T01:36:41;7.60;;;6.60;;
10715;SDS011;5409;42.620;23.316;2023-03-23T01:39:08;6.43;;;5.75;;
10715;SDS011;5409;42.620;23.316;2023-03-23T01:41:35;11.18;;;4.15;;
10715;SDS011;5409;42.620;23.316;2023-03-23T01:44:02;5.80;;;4.90;;
10715;SDS011;5409;42.620;23.316;2023-03-23T01:46:32;5.88;;;4.90;;
10715;SDS011;5409;42.620;23.316;2023-03-23T01:49:02;8.15;;;4.97;;
10715;SDS011;5409;42.620;23.316;2023-03-23T01:51:34;6.40;;;4.95;;
10715;SDS011;5409;42.620;23.316;2023-03-23T01:54:04;5.65;;;4.78;;
10715;SDS011;5409;42.620;23.316;2023-03-23T01:56:35;13.25;;;4.78;;
10715;SDS011;5409;42.620;23.316;2023-03-23T01:59:06;8.45;;;5.07;;
10715;SDS011;5409;42.620;23.316;2023-03-23T02:01:34;7.85;;;6.07;;
10715;SDS011;5409;42.620;23.316;2023-03-23T02:04:04;9.10;;;7.55;;
10715;SDS011;5409;42.620;23.316;2023-03-23T02:06:32;10.20;;;7.85;;
10715;SDS011;5409;42.620;23.316;2023-03-23T02:08:59;9.23;;;7.07;;
10715;SDS011;5409;42.620;23.316;2023-03-23T02:11:26;8.85;;;6.85;;
10715;SDS011;5409;42.620;23.316;2023-03-23T02:13:52;10.55;;;7.93;;
10715;SDS011;5409;42.620;23.316;2023-03-23T02:16:21;13.18;;;8.93;;
10715;SDS011;5409;42.620;23.316;2023-03-23T02:18:58;11.80;;;8.82;;
10715;SDS011;5409;42.620;23.316;2023-03-23T02:21:51;11.00;;;8.15;;
10715;SDS011;5409;42.620;23.316;2023-03-23T02:24:39;11.93;;;8.13;;
10715;SDS011;5409;42.620;23.316;2023-03-23T02:27:35;11.60;;;8.18;;
10715;SDS011;5409;42.620;23.316;2023-03-23T02:30:20;10.20;;;6.80;;
10715;SDS011;5409;42.620;23.316;2023-03-23T02:33:12;9.10;;;7.55;;
10715;SDS011;5409;42.620;23.316;2023-03-23T02:36:03;10.75;;;7.88;;
10715;SDS011;5409;42.620;23.316;2023-03-23T02:38:37;13.00;;;10.10;;
10715;SDS011;5409;42.620;23.316;2023-03-23T02:41:09;14.40;;;9.48;;
10715;SDS011;5409;42.620;23.316;2023-03-23T02:43:39;12.27;;;10.07;;
10715;SDS011;5409;42.620;23.316;2023-03-23T02:46:09;13.20;;;9.80;;
10715;SDS011;5409;42.620;23.316;2023-03-23T02:48:38;15.32;;;9.73;;
10715;SDS011;5409;42.620;23.316;2023-03-23T02:51:08;17.10;;;10.68;;
10715;SDS011;5409;42.620;23.316;2023-03-23T02:53:39;13.85;;;10.13;;
10715;SDS011;5409;42.620;23.316;2023-03-23T02:56:08;12.13;;;9.88;;
10715;SDS011;5409;42.620;23.316;2023-03-23T02:58:36;11.70;;;8.50;;
10715;SDS011;5409;42.620;23.316;2023-03-23T03:01:44;12.07;;;8.95;;
10715;SDS011;5409;42.620;23.316;2023-03-23T03:04:16;10.13;;;8.48;;
10715;SDS011;5409;42.620;23.316;2023-03-23T03:06:49;11.52;;;8.02;;
10715;SDS011;5409;42.620;23.316;2023-03-23T03:09:33;14.00;;;8.13;;
10715;SDS011;5409;42.620;23.316;2023-03-23T03:12:09;11.60;;;9.18;;
10715;SDS011;5409;42.620;23.316;2023-03-23T03:14:41;12.18;;;8.88;;
10715;SDS011;5409;42.620;23.316;2023-03-23T03:17:17;10.55;;;8.35;;
10715;SDS011;5409;42.620;23.316;2023-03-23T03:19:50;12.27;;;7.90;;
10715;SDS011;5409;42.620;23.316;2023-03-23T03:22:22;10.52;;;7.68;;
10715;SDS011;5409;42.620;23.316;2023-03-23T03:24:54;10.75;;;7.45;;
10715;SDS011;5409;42.620;23.316;2023-03-23T03:27:24;9.52;;;8.23;;
10715;SDS011;5409;42.620;23.316;2023-03-23T03:29:53;11.20;;;8.18;;
10715;SDS011;5409;42.620;23.316;2023-03-23T03:32:24;10.20;;;8.10;;
10715;SDS011;5409;42.620;23.316;2023-03-23T03:34:59;9.75;;;7.45;;
10715;SDS011;5409;42.620;23.316;2023-03-23T03:37:27;10.65;;;8.13;;
10715;SDS011;5409;42.620;23.316;2023-03-23T03:40:03;9.57;;;7.32;;
10715;SDS011;5409;42.620;23.316;2023-03-23T03:42:36;9.88;;;7.65;;
10715;SDS011;5409;42.620;23.316;2023-03-23T03:45:03;11.05;;;7.30;;
10715;SDS011;5409;42.620;23.316;2023-03-23T03:47:30;10.95;;;7.75;;
10715;SDS011;5409;42.620;23.316;2023-03-23T03:49:57;10.13;;;7.88;;
10715;SDS011;5409;42.620;23.316;2023-03-23T03:52:25;8.77;;;7.07;;
10715;SDS011;5409;42.620;23.316;2023-03-23T03:54:52;9.52;;;7.15;;
10715;SDS011;5409;42.620;23.316;2023-03-23T03:57:20;12.98;;;7.88;;
10715;SDS011;5409;42.620;23.316;2023-03-23T03:59:47;10.25;;;7.35;;
10715;SDS011;5409;42.620;23.316;2023-03-23T04:02:14;9.63;;;7.30;;
10715;SDS011;5409;42.620;23.316;2023-03-23T04:04:44;10.30;;;7.20;;
10715;SDS011;5409;42.620;23.316;2023-03-23T04:07:11;10.13;;;7.30;;
10715;SDS011;5409;42.620;23.316;2023-03-23T04:09:40;10.63;;;7.40;;
10715;SDS011;5409;42.620;23.316;2023-03-23T04:12:08;10.85;;;7.15;;
10715;SDS011;5409;42.620;23.316;2023-03-23T04:14:35;9.65;;;6.88;;
10715;SDS011;5409;42.620;23.316;2023-03-23T04:17:01;10.10;;;6.65;;
10715;SDS011;5409;42.620;23.316;2023-03-23T04:19:28;7.88;;;6.07;;
10715;SDS011;5409;42.620;23.316;2023-03-23T04:21:58;10.02;;;7.40;;
10715;SDS011;5409;42.620;23.316;2023-03-23T04:24:25;14.65;;;7.53;;
10715;SDS011;5409;42.620;23.316;2023-03-23T04:26:54;11.40;;;8.00;;
10715;SDS011;5409;42.620;23.316;2023-03-23T04:29:21;9.77;;;7.43;;
10715;SDS011;5409;42.620;23.316;2023-03-23T04:31:48;9.20;;;7.00;;
10715;SDS011;5409;42.620;23.316;2023-03-23T04:34:17;10.70;;;7.13;;
10715;SDS011;5409;42.620;23.316;2023-03-23T04:36:44;10.07;;;6.97;;
10715;SDS011;5409;42.620;23.316;2023-03-23T04:39:11;10.48;;;7.25;;
10715;SDS011;5409;42.620;23.316;2023-03-23T04:41:38;10.20;;;7.90;;
10715;SDS011;5409;42.620;23.316;2023-03-23T04:44:07;9.68;;;6.60;;
10715;SDS011;5409;42.620;23.316;2023-03-23T04:46:34;10.50;;;7.32;;
10715;SDS011;5409;42.620;23.316;2023-03-23T04:49:01;8.73;;;7.35;;
10715;SDS011;5409;42.620;23.316;2023-03-23T04:51:28;10.18;;;7.90;;
10715;SDS011;5409;42.620;23.316;2023-03-23T04:53:56;10.63;;;7.22;;
10715;SDS011;5409;42.620;23.316;2023-03-23T04:56:23;9.25;;;7.28;;
10715;SDS011;5409;42.620;23.316;2023-03-23T04:58:49;13.18;;;7.20;;
10715;SDS011;5409;42.620;23.316;2023-03-23T05:01:18;9.85;;;7.47;;
10715;SDS011;5409;42.620;23.316;2023-03-23T05:03:44;11.63;;;7.75;;
10715;SDS011;5409;42.620;23.316;2023-03-23T05:06:11;10.98;;;7.70;;
10715;SDS011;5409;42.620;23.316;2023-03-23T05:08:38;11.43;;;8.55;;
10715;SDS011;5409;42.620;23.316;2023-03-23T05:11:06;10.52;;;7.75;;
10715;SDS011;5409;42.620;23.316;2023-03-23T05:13:33;9.88;;;7.60;;
10715;SDS011;5409;42.620;23.316;2023-03-23T05:16:02;8.93;;;7.22;;
10715;SDS011;5409;42.620;23.316;2023-03-23T05:18:32;9.20;;;7.13;;
10715;SDS011;5409;42.620;23.316;2023-03-23T05:20:59;11.82;;;7.80;;
10715;SDS011;5409;42.620;23.316;2023-03-23T05:23:26;8.07;;;7.10;;
10715;SDS011;5409;42.620;23.316;2023-03-23T05:25:56;7.72;;;6.47;;
10715;SDS011;5409;42.620;23.316;2023-03-23T05:28:25;11.30;;;7.07;;
10715;SDS011;5409;42.620;23.316;2023-03-23T05:30:53;7.70;;;6.80;;
10715;SDS011;5409;42.620;23.316;2023-03-23T05:33:21;7.78;;;5.90;;
10715;SDS011;5409;42.620;23.316;2023-03-23T05:35:49;9.00;;;6.03;;
10715;SDS011;5409;42.620;23.316;2023-03-23T05:38:16;7.07;;;6.00;;
10715;SDS011;5409;42.620;23.316;2023-03-23T05:40:43;7.60;;;6.60;;
10715;SDS011;5409;42.620;23.316;2023-03-23T05:43:09;7.30;;;6.07;;
10715;SDS011;5409;42.620;23.316;2023-03-23T05:45:37;9.00;;;7.05;;
10715;SDS011;5409;42.620;23.316;2023-03-23T05:48:04;13.18;;;8.85;;
10715;SDS011;5409;42.620;23.316;2023-03-23T05:50:30;9.82;;;7.30;;
10715;SDS011;5409;42.620;23.316;2023-03-23T05:52:59;6.25;;;5.57;;
10715;SDS011;5409;42.620;23.316;2023-03-23T05:55:26;8.68;;;6.30;;
10715;SDS011;5409;42.620;23.316;2023-03-23T05:57:53;6.47;;;5.30;;
10715;SDS011;5409;42.620;23.316;2023-03-23T06:00:20;24.60;;;15.85;;
10715;SDS011;5409;42.620;23.316;2023-03-23T06:02:48;25.25;;;19.30;;
10715;SDS011;5409;42.620;23.316;2023-03-23T06:05:16;30.35;;;19.90;;
10715;SDS011;5409;42.620;23.316;2023-03-23T06:07:43;28.33;;;20.23;;
10715;SDS011;5409;42.620;23.316;2023-03-23T06:10:11;29.70;;;22.55;;
10715;SDS011;5409;42.620;23.316;2023-03-23T06:12:38;30.55;;;20.70;;
10715;SDS011;5409;42.620;23.316;2023-03-23T06:15:06;30.73;;;22.80;;
10715;SDS011;5409;42.620;23.316;2023-03-23T06:17:34;31.48;;;22.33;;
10715;SDS011;5409;42.620;23.316;2023-03-23T06:20:02;31.98;;;22.98;;
10715;SDS011;5409;42.620;23.316;2023-03-23T06:22:34;30.38;;;20.67;;
10715;SDS011;5409;42.620;23.316;2023-03-23T06:25:01;28.55;;;20.17;;
10715;SDS011;5409;42.620;23.316;2023-03-23T06:27:29;26.35;;;19.58;;
10715;SDS011;5409;42.620;23.316;2023-03-23T06:29:56;18.52;;;14.23;;
10715;SDS011;5409;42.620;23.316;2023-03-23T06:32:23;17.00;;;13.00;;
10715;SDS011;5409;42.620;23.316;2023-03-23T06:34:52;17.55;;;12.88;;
10715;SDS011;5409;42.620;23.316;2023-03-23T06:37:19;10.60;;;8.48;;
10715;SDS011;5409;42.620;23.316;2023-03-23T06:39:46;26.08;;;19.48;;
10715;SDS011;5409;42.620;23.316;2023-03-23T06:42:13;31.50;;;20.27;;
10715;SDS011;5409;42.620;23.316;2023-03-23T06:44:41;27.52;;;19.35;;
10715;SDS011;5409;42.620;23.316;2023-03-23T06:47:08;24.40;;;18.10;;
10715;SDS011;5409;42.620;23.316;2023-03-23T06:49:35;22.83;;;17.40;;
10715;SDS011;5409;42.620;23.316;2023-03-23T06:52:01;26.23;;;19.65;;
10715;SDS011;5409;42.620;23.316;2023-03-23T06:54:28;25.85;;;20.70;;
10715;SDS011;5409;42.620;23.316;2023-03-23T06:56:55;24.42;;;19.75;;
10715;SDS011;5409;42.620;23.316;2023-03-23T06:59:22;30.33;;;21.92;;
10715;SDS011;5409;42.620;23.316;2023-03-23T07:01:51;30.27;;;21.45;;
10715;SDS011;5409;42.620;23.316;2023-03-23T07:04:18;30.65;;;21.27;;
10715;SDS011;5409;42.620;23.316;2023-03-23T07:06:46;29.90;;;19.95;;
10715;SDS011;5409;42.620;23.316;2023-03-23T07:09:13;25.52;;;19.80;;
10715;SDS011;5409;42.620;23.316;2023-03-23T07:11:40;31.02;;;22.73;;
10715;SDS011;5409;42.620;23.316;2023-03-23T07:14:07;28.80;;;20.48;;
10715;SDS011;5409;42.620;23.316;2023-03-23T07:16:34;28.90;;;21.60;;
10715;SDS011;5409;42.620;23.316;2023-03-23T07:19:02;32.08;;;20.90;;
10715;SDS011;5409;42.620;23.316;2023-03-23T07:21:28;26.60;;;20.80;;
10715;SDS011;5409;42.620;23.316;2023-03-23T07:23:55;26.38;;;20.00;;
10715;SDS011;5409;42.620;23.316;2023-03-23T07:26:22;28.33;;;19.95;;
10715;SDS011;5409;42.620;23.316;2023-03-23T07:28:49;27.80;;;20.98;;
10715;SDS011;5409;42.620;23.316;2023-03-23T07:31:15;29.27;;;19.17;;
10715;SDS011;5409;42.620;23.316;2023-03-23T07:33:42;26.45;;;19.65;;
10715;SDS011;5409;42.620;23.316;2023-03-23T07:36:11;28.08;;;19.67;;
10715;SDS011;5409;42.620;23.316;2023-03-23T07:38:38;24.50;;;18.08;;
10715;SDS011;5409;42.620;23.316;2023-03-23T07:41:05;24.08;;;18.33;;
10715;SDS011;5409;42.620;23.316;2023-03-23T07:43:32;25.23;;;17.60;;
10715;SDS011;5409;42.620;23.316;2023-03-23T07:45:59;20.30;;;11.60;;
10715;SDS011;5409;42.620;23.316;2023-03-23T07:48:26;8.77;;;7.88;;
10715;SDS011;5409;42.620;23.316;2023-03-23T07:50:53;11.60;;;6.82;;
10715;SDS011;5409;42.620;23.316;2023-03-23T07:53:21;21.98;;;15.98;;
10715;SDS011;5409;42.620;23.316;2023-03-23T07:55:49;25.33;;;16.63;;
10715;SDS011;5409;42.620;23.316;2023-03-23T07:58:15;19.50;;;15.52;;
10715;SDS011;5409;42.620;23.316;2023-03-23T08:00:44;22.35;;;15.02;;
10715;SDS011;5409;42.620;23.316;2023-03-23T08:03:13;17.80;;;14.65;;
10715;SDS011;5409;42.620;23.316;2023-03-23T08:05:40;21.42;;;14.15;;
10715;SDS011;5409;42.620;23.316;2023-03-23T08:08:07;18.05;;;13.95;;
10715;SDS011;5409;42.620;23.316;2023-03-23T08:10:36;13.90;;;10.93;;
10715;SDS011;5409;42.620;23.316;2023-03-23T08:13:03;20.95;;;14.27;;
10715;SDS011;5409;42.620;23.316;2023-03-23T08:15:31;16.83;;;10.82;;
10715;SDS011;5409;42.620;23.316;2023-03-23T08:18:03;18.52;;;13.02;;
10715;SDS011;5409;42.620;23.316;2023-03-23T08:20:30;13.23;;;11.00;;
10715;SDS011;5409;42.620;23.316;2023-03-23T08:22:57;19.77;;;12.32;;
10715;SDS011;5409;42.620;23.316;2023-03-23T08:25:24;12.50;;;9.55;;
10715;SDS011;5409;42.620;23.316;2023-03-23T08:27:53;5.85;;;5.25;;
10715;SDS011;5409;42.620;23.316;2023-03-23T08:30:21;8.98;;;5.80;;
10715;SDS011;5409;42.620;23.316;2023-03-23T08:32:49;6.47;;;5.72;;
10715;SDS011;5409;42.620;23.316;2023-03-23T08:35:17;17.45;;;10.85;;
10715;SDS011;5409;42.620;23.316;2023-03-23T08:37:44;12.50;;;9.88;;
10715;SDS011;5409;42.620;23.316;2023-03-23T08:40:16;7.85;;;6.53;;
10715;SDS011;5409;42.620;23.316;2023-03-23T08:42:44;6.20;;;5.60;;
10715;SDS011;5409;42.620;23.316;2023-03-23T08:45:14;6.05;;;5.07;;
10715;SDS011;5409;42.620;23.316;2023-03-23T08:47:43;7.32;;;4.80;;
10715;SDS011;5409;42.620;23.316;2023-03-23T08:50:12;7.47;;;5.95;;
10715;SDS011;5409;42.620;23.316;2023-03-23T08:52:40;7.35;;;6.00;;
10715;SDS011;5409;42.620;23.316;2023-03-23T08:55:08;8.70;;;6.43;;
10715;SDS011;5409;42.620;23.316;2023-03-23T08:57:36;8.57;;;5.65;;
10715;SDS011;5409;42.620;23.316;2023-03-23T09:00:04;7.30;;;6.05;;
10715;SDS011;5409;42.620;23.316;2023-03-23T09:02:40;7.07;;;5.53;;
10715;SDS011;5409;42.620;23.316;2023-03-23T09:05:08;6.68;;;5.97;;
10715;SDS011;5409;42.620;23.316;2023-03-23T09:07:35;9.07;;;5.82;;
10715;SDS011;5409;42.620;23.316;2023-03-23T09:10:02;7.15;;;6.45;;
10715;SDS011;5409;42.620;23.316;2023-03-23T09:12:29;8.75;;;6.93;;
10715;SDS011;5409;42.620;23.316;2023-03-23T09:14:56;9.80;;;6.72;;
10715;SDS011;5409;42.620;23.316;2023-03-23T09:17:23;6.72;;;6.00;;
10715;SDS011;5409;42.620;23.316;2023-03-23T09:19:51;6.82;;;5.95;;
10715;SDS011;5409;42.620;23.316;2023-03-23T09:22:18;6.10;;;5.47;;
10715;SDS011;5409;42.620;23.316;2023-03-23T09:24:48;5.72;;;5.15;;
10715;SDS011;5409;42.620;23.316;2023-03-23T09:27:16;7.28;;;5.28;;
10715;SDS011;5409;42.620;23.316;2023-03-23T09:29:44;7.78;;;5.55;;
10715;SDS011;5409;42.620;23.316;2023-03-23T09:32:13;6.85;;;5.50;;
10715;SDS011;5409;42.620;23.316;2023-03-23T09:34:40;6.25;;;5.00;;
10715;SDS011;5409;42.620;23.316;2023-03-23T09:37:08;6.47;;;5.88;;
10715;SDS011;5409;42.620;23.316;2023-03-23T09:39:38;7.15;;;5.97;;
10715;SDS011;5409;42.620;23.316;2023-03-23T09:42:18;6.38;;;5.65;;
10715;SDS011;5409;42.620;23.316;2023-03-23T09:45:02;7.75;;;6.18;;
10715;SDS011;5409;42.620;23.316;2023-03-23T09:47:40;6.60;;;5.70;;
10715;SDS011;5409;42.620;23.316;2023-03-23T09:50:15;6.82;;;5.93;;
10715;SDS011;5409;42.620;23.316;2023-03-23T09:52:47;6.28;;;5.53;;
10715;SDS011;5409;42.620;23.316;2023-03-23T09:55:22;6.90;;;6.20;;
10715;SDS011;5409;42.620;23.316;2023-03-23T09:57:51;10.40;;;6.68;;
10715;SDS011;5409;42.620;23.316;2023-03-23T10:00:23;7.13;;;5.85;;
10715;SDS011;5409;42.620;23.316;2023-03-23T10:02:55;7.50;;;6.10;;
10715;SDS011;5409;42.620;23.316;2023-03-23T10:05:29;7.53;;;6.40;;
10715;SDS011;5409;42.620;23.316;2023-03-23T10:08:00;7.20;;;6.43;;
10715;SDS011;5409;42.620;23.316;2023-03-23T10:10:31;7.68;;;6.53;;
10715;SDS011;5409;42.620;23.316;2023-03-23T10:13:09;7.97;;;6.00;;
10715;SDS011;5409;42.620;23.316;2023-03-23T10:15:42;7.57;;;6.10;;
10715;SDS011;5409;42.620;23.316;2023-03-23T10:18:12;5.82;;;5.22;;
10715;SDS011;5409;42.620;23.316;2023-03-23T10:20:45;5.70;;;5.00;;
10715;SDS011;5409;42.620;23.316;2023-03-23T10:23:32;6.47;;;5.70;;
10715;SDS011;5409;42.620;23.316;2023-03-23T10:26:08;5.63;;;5.05;;
10715;SDS011;5409;42.620;23.316;2023-03-23T10:28:44;6.70;;;5.10;;
10715;SDS011;5409;42.620;23.316;2023-03-23T10:31:15;5.45;;;4.57;;
10715;SDS011;5409;42.620;23.316;2023-03-23T10:33:49;5.75;;;4.57;;
10715;SDS011;5409;42.620;23.316;2023-03-23T10:36:19;5.93;;;4.93;;
10715;SDS011;5409;42.620;23.316;2023-03-23T10:38:53;5.75;;;4.80;;
10715;SDS011;5409;42.620;23.316;2023-03-23T10:41:24;5.97;;;5.00;;
10715;SDS011;5409;42.620;23.316;2023-03-23T10:43:51;5.32;;;4.78;;
10715;SDS011;5409;42.620;23.316;2023-03-23T10:46:25;5.05;;;4.55;;
10715;SDS011;5409;42.620;23.316;2023-03-23T10:48:58;7.13;;;5.20;;
10715;SDS011;5409;42.620;23.316;2023-03-23T10:51:28;6.22;;;5.35;;
10715;SDS011;5409;42.620;23.316;2023-03-23T10:54:02;7.10;;;5.22;;
10715;SDS011;5409;42.620;23.316;2023-03-23T10:56:34;5.93;;;4.95;;
10715;SDS011;5409;42.620;23.316;2023-03-23T10:59:13;5.95;;;4.90;;
10715;SDS011;5409;42.620;23.316;2023-03-23T11:01:42;7.40;;;5.95;;
10715;SDS011;5409;42.620;23.316;2023-03-23T11:04:13;7.63;;;5.78;;
10715;SDS011;5409;42.620;23.316;2023-03-23T11:06:43;7.30;;;5.00;;
10715;SDS011;5409;42.620;23.316;2023-03-23T11:09:13;11.77;;;5.50;;
10715;SDS011;5409;42.620;23.316;2023-03-23T11:11:43;7.60;;;5.32;;
10715;SDS011;5409;42.620;23.316;2023-03-23T11:14:16;7.28;;;5.05;;
10715;SDS011;5409;42.620;23.316;2023-03-23T11:16:45;6.45;;;5.20;;
10715;SDS011;5409;42.620;23.316;2023-03-23T11:19:21;7.00;;;4.80;;
10715;SDS011;5409;42.620;23.316;2023-03-23T11:21:50;6.05;;;5.40;;
10715;SDS011;5409;42.620;23.316;2023-03-23T11:24:22;7.72;;;5.35;;
10715;SDS011;5409;42.620;23.316;2023-03-23T11:26:49;6.60;;;5.30;;
10715;SDS011;5409;42.620;23.316;2023-03-23T11:29:18;6.10;;;5.50;;
10715;SDS011;5409;42.620;23.316;2023-03-23T11:31:49;7.30;;;5.22;;
10715;SDS011;5409;42.620;23.316;2023-03-23T11:34:18;6.07;;;5.47;;
10715;SDS011;5409;42.620;23.316;2023-03-23T11:36:48;7.82;;;5.55;;
10715;SDS011;5409;42.620;23.316;2023-03-23T11:39:22;8.82;;;5.22;;
10715;SDS011;5409;42.620;23.316;2023-03-23T11:41:50;6.80;;;6.10;;
10715;SDS011;5409;42.620;23.316;2023-03-23T11:44:17;6.97;;;5.63;;
10715;SDS011;5409;42.620;23.316;2023-03-23T11:46:47;6.97;;;5.40;;
10715;SDS011;5409;42.620;23.316;2023-03-23T11:49:25;6.63;;;5.97;;
10715;SDS011;5409;42.620;23.316;2023-03-23T11:52:02;6.18;;;5.43;;
10715;SDS011;5409;42.620;23.316;2023-03-23T11:54:42;8.02;;;5.30;;
10715;SDS011;5409;42.620;23.316;2023-03-23T11:57:12;6.68;;;5.82;;
10715;SDS011;5409;42.620;23.316;2023-03-23T11:59:41;5.93;;;5.20;;
10715;SDS011;5409;42.620;23.316;2023-03-23T12:02:21;12.52;;;6.03;;
10715;SDS011;5409;42.620;23.316;2023-03-23T15:12:33;8.18;;;4.43;;
10715;SDS011;5409;42.620;23.316;2023-03-23T15:15:01;10.38;;;4.68;;
10715;SDS011;5409;42.620;23.316;2023-03-23T15:17:31;5.63;;;5.03;;
10715;SDS011;5409;42.620;23.316;2023-03-23T15:20:07;6.78;;;4.72;;
10715;SDS011;5409;42.620;23.316;2023-03-23T15:22:35;6.55;;;4.50;;
10715;SDS011;5409;42.620;23.316;2023-03-23T15:25:03;6.03;;;5.28;;
10715;SDS011;5409;42.620;23.316;2023-03-23T15:27:40;5.72;;;4.57;;
10715;SDS011;5409;42.620;23.316;2023-03-23T15:30:13;5.22;;;4.72;;
10715;SDS011;5409;42.620;23.316;2023-03-23T15:32:44;7.75;;;4.95;;
10715;SDS011;5409;42.620;23.316;2023-03-23T15:35:12;6.50;;;4.82;;
10715;SDS011;5409;42.620;23.316;2023-03-23T15:37:42;5.38;;;4.30;;
10715;SDS011;5409;42.620;23.316;2023-03-23T15:40:13;6.75;;;4.82;;
10715;SDS011;5409;42.620;23.316;2023-03-23T15:42:43;6.53;;;5.00;;
10715;SDS011;5409;42.620;23.316;2023-03-23T15:45:22;6.72;;;5.20;;
10715;SDS011;5409;42.620;23.316;2023-03-23T15:47:51;5.93;;;5.35;;
10715;SDS011;5409;42.620;23.316;2023-03-23T15:50:19;9.50;;;7.43;;
10715;SDS011;5409;42.620;23.316;2023-03-23T15:52:58;8.00;;;6.85;;
10715;SDS011;5409;42.620;23.316;2023-03-23T15:55:25;11.57;;;9.10;;
10715;SDS011;5409;42.620;23.316;2023-03-23T15:57:55;9.45;;;8.45;;
10715;SDS011;5409;42.620;23.316;2023-03-23T16:00:24;56.95;;;34.80;;
10715;SDS011;5409;42.620;23.316;2023-03-23T16:02:52;11.65;;;9.45;;
10715;SDS011;5409;42.620;23.316;2023-03-23T16:05:21;14.20;;;11.45;;
10715;SDS011;5409;42.620;23.316;2023-03-23T16:07:48;14.45;;;10.55;;
10715;SDS011;5409;42.620;23.316;2023-03-23T16:10:16;12.85;;;9.20;;
10715;SDS011;5409;42.620;23.316;2023-03-23T16:12:45;6.70;;;5.47;;
10715;SDS011;5409;42.620;23.316;2023-03-23T16:15:14;13.15;;;11.45;;
10715;SDS011;5409;42.620;23.316;2023-03-23T16:17:41;13.13;;;10.50;;
10715;SDS011;5409;42.620;23.316;2023-03-23T16:20:10;10.98;;;7.90;;
10715;SDS011;5409;42.620;23.316;2023-03-23T16:22:37;10.05;;;8.43;;
10715;SDS011;5409;42.620;23.316;2023-03-23T16:25:05;4.93;;;4.20;;
10715;SDS011;5409;42.620;23.316;2023-03-23T16:27:33;7.05;;;6.32;;
10715;SDS011;5409;42.620;23.316;2023-03-23T16:30:00;6.28;;;5.20;;
10715;SDS011;5409;42.620;23.316;2023-03-23T16:32:29;11.70;;;6.80;;
10715;SDS011;5409;42.620;23.316;2023-03-23T16:34:56;7.47;;;4.70;;
10715;SDS011;5409;42.620;23.316;2023-03-23T16:37:23;8.55;;;5.85;;
10715;SDS011;5409;42.620;23.316;2023-03-23T16:39:49;5.35;;;4.85;;
10715;SDS011;5409;42.620;23.316;2023-03-23T16:42:16;13.50;;;10.40;;
10715;SDS011;5409;42.620;23.316;2023-03-23T16:44:43;9.50;;;7.25;;
10715;SDS011;5409;42.620;23.316;2023-03-23T16:47:10;22.17;;;15.88;;
10715;SDS011;5409;42.620;23.316;2023-03-23T16:49:38;20.08;;;15.27;;
10715;SDS011;5409;42.620;23.316;2023-03-23T16:52:05;5.10;;;4.35;;
10715;SDS011;5409;42.620;23.316;2023-03-23T16:54:32;5.13;;;4.53;;
10715;SDS011;5409;42.620;23.316;2023-03-23T16:56:58;4.30;;;3.90;;
10715;SDS011;5409;42.620;23.316;2023-03-23T16:59:26;4.22;;;3.83;;
10715;SDS011;5409;42.620;23.316;2023-03-23T17:01:53;3.58;;;3.28;;
10715;SDS011;5409;42.620;23.316;2023-03-23T17:04:19;9.77;;;6.70;;
10715;SDS011;5409;42.620;23.316;2023-03-23T17:06:48;5.80;;;4.95;;
10715;SDS011;5409;42.620;23.316;2023-03-23T17:09:15;10.95;;;8.05;;
10715;SDS011;5409;42.620;23.316;2023-03-23T17:11:43;4.53;;;4.10;;
10715;SDS011;5409;42.620;23.316;2023-03-23T17:14:09;4.90;;;3.50;;
10715;SDS011;5409;42.620;23.316;2023-03-23T17:16:36;4.05;;;3.60;;
10715;SDS011;5409;42.620;23.316;2023-03-23T17:19:04;6.30;;;5.25;;
10715;SDS011;5409;42.620;23.316;2023-03-23T17:21:31;7.20;;;4.90;;
10715;SDS011;5409;42.620;23.316;2023-03-23T17:23:59;4.43;;;4.03;;
10715;SDS011;5409;42.620;23.316;2023-03-23T17:26:26;5.03;;;3.47;;
10715;SDS011;5409;42.620;23.316;2023-03-23T17:28:52;5.15;;;4.25;;
10715;SDS011;5409;42.620;23.316;2023-03-23T17:31:19;4.65;;;4.15;;
10715;SDS011;5409;42.620;23.316;2023-03-23T17:33:46;4.00;;;3.30;;
10715;SDS011;5409;42.620;23.316;2023-03-23T17:36:12;3.30;;;2.85;;
10715;SDS011;5409;42.620;23.316;2023-03-23T17:38:39;3.83;;;3.42;;
10715;SDS011;5409;42.620;23.316;2023-03-23T17:41:07;4.40;;;3.45;;
10715;SDS011;5409;42.620;23.316;2023-03-23T17:43:35;5.53;;;4.68;;
10715;SDS011;5409;42.620;23.316;2023-03-23T17:46:04;3.53;;;3.22;;
10715;SDS011;5409;42.620;23.316;2023-03-23T17:48:31;3.53;;;3.22;;
10715;SDS011;5409;42.620;23.316;2023-03-23T17:50:58;3.33;;;2.85;;
10715;SDS011;5409;42.620;23.316;2023-03-23T17:53:26;3.65;;;3.30;;
10715;SDS011;5409;42.620;23.316;2023-03-23T17:55:54;3.45;;;2.75;;
10715;SDS011;5409;42.620;23.316;2023-03-23T17:58:23;3.70;;;2.83;;
10715;SDS011;5409;42.620;23.316;2023-03-23T18:00:51;4.47;;;2.97;;